sensor_id;sensor_type;location;lat;lon;timestamp;P1;durP1;ratioP1;P2;durP2;ratioP2
30249;SDS011;17064;47.974;13.826;2022-10-16T00:04:42;0.70;;;0.47;;
30249;SDS011;17064;47.974;13.826;2022-10-16T00:09:43;2.58;;;0.75;;
30249;SDS011;17064;47.974;13.826;2022-10-16T00:14:43;3.22;;;0.60;;
30249;SDS011;17064;47.974;13.826;2022-10-16T00:19:44;2.28;;;0.60;;
30249;SDS011;17064;47.974;13.826;2022-10-16T00:24:45;3.05;;;1.00;;
30249;SDS011;17064;47.974;13.826;2022-10-16T00:29:49;1.35;;;0.80;;
30249;SDS011;17064;47.974;13.826;2022-10-16T00:34:51;1.92;;;0.68;;
30249;SDS011;17064;47.974;13.826;2022-10-16T00:39:54;5.85;;;0.60;;
30249;SDS011;17064;47.974;13.826;2022-10-16T00:44:55;2.92;;;0.73;;
30249;SDS011;17064;47.974;13.826;2022-10-16T00:50:39;0.70;;;0.57;;
30249;SDS011;17064;47.974;13.826;2022-10-16T00:55:29;6.00;;;0.67;;
30249;SDS011;17064;47.974;13.826;2022-10-16T01:00:30;2.78;;;0.73;;
30249;SDS011;17064;47.974;13.826;2022-10-16T01:05:34;1.95;;;0.60;;
30249;SDS011;17064;47.974;13.826;2022-10-16T01:10:56;2.05;;;0.80;;
30249;SDS011;17064;47.974;13.826;2022-10-16T01:16:02;1.70;;;0.73;;
30249;SDS011;17064;47.974;13.826;2022-10-16T01:21:11;7.53;;;0.95;;
30249;SDS011;17064;47.974;13.826;2022-10-16T01:32:05;2.75;;;0.85;;
30249;SDS011;17064;47.974;13.826;2022-10-16T01:37:18;1.45;;;0.70;;
30249;SDS011;17064;47.974;13.826;2022-10-16T01:42:30;5.90;;;2.20;;
30249;SDS011;17064;47.974;13.826;2022-10-16T01:47:36;6.63;;;2.47;;
30249;SDS011;17064;47.974;13.826;2022-10-16T01:52:40;4.33;;;0.83;;
30249;SDS011;17064;47.974;13.826;2022-10-16T01:57:45;1.67;;;0.90;;
30249;SDS011;17064;47.974;13.826;2022-10-16T02:02:49;2.28;;;0.80;;
30249;SDS011;17064;47.974;13.826;2022-10-16T02:07:53;2.08;;;0.70;;
30249;SDS011;17064;47.974;13.826;2022-10-16T02:12:55;1.40;;;0.68;;
30249;SDS011;17064;47.974;13.826;2022-10-16T02:18:01;3.53;;;0.73;;
30249;SDS011;17064;47.974;13.826;2022-10-16T02:23:03;2.30;;;0.45;;
30249;SDS011;17064;47.974;13.826;2022-10-16T02:28:14;1.00;;;0.57;;
30249;SDS011;17064;47.974;13.826;2022-10-16T02:33:18;2.57;;;0.70;;
30249;SDS011;17064;47.974;13.826;2022-10-16T02:38:22;1.48;;;0.47;;
30249;SDS011;17064;47.974;13.826;2022-10-16T02:43:25;2.33;;;0.50;;
30249;SDS011;17064;47.974;13.826;2022-10-16T02:48:26;3.83;;;0.75;;
30249;SDS011;17064;47.974;13.826;2022-10-16T02:53:27;1.73;;;0.52;;
30249;SDS011;17064;47.974;13.826;2022-10-16T02:58:27;1.17;;;0.63;;
30249;SDS011;17064;47.974;13.826;2022-10-16T03:03:28;2.90;;;0.60;;
30249;SDS011;17064;47.974;13.826;2022-10-16T03:08:29;3.13;;;0.88;;
30249;SDS011;17064;47.974;13.826;2022-10-16T03:13:29;4.35;;;0.75;;
30249;SDS011;17064;47.974;13.826;2022-10-16T03:18:30;0.63;;;0.55;;
30249;SDS011;17064;47.974;13.826;2022-10-16T03:23:31;0.70;;;0.50;;
30249;SDS011;17064;47.974;13.826;2022-10-16T03:28:32;2.30;;;0.60;;
30249;SDS011;17064;47.974;13.826;2022-10-16T03:33:32;4.10;;;0.65;;
30249;SDS011;17064;47.974;13.826;2022-10-16T03:38:33;2.03;;;0.75;;
30249;SDS011;17064;47.974;13.826;2022-10-16T03:43:34;4.30;;;0.70;;
30249;SDS011;17064;47.974;13.826;2022-10-16T03:48:35;1.92;;;0.50;;
30249;SDS011;17064;47.974;13.826;2022-10-16T03:53:35;2.88;;;0.63;;
30249;SDS011;17064;47.974;13.826;2022-10-16T03:58:36;1.65;;;0.80;;
30249;SDS011;17064;47.974;13.826;2022-10-16T04:03:37;1.38;;;0.60;;
30249;SDS011;17064;47.974;13.826;2022-10-16T04:08:37;1.85;;;0.73;;
30249;SDS011;17064;47.974;13.826;2022-10-16T04:13:39;4.05;;;0.60;;
30249;SDS011;17064;47.974;13.826;2022-10-16T04:18:39;1.65;;;0.50;;
30249;SDS011;17064;47.974;13.826;2022-10-16T04:23:41;1.83;;;0.98;;
30249;SDS011;17064;47.974;13.826;2022-10-16T04:28:42;0.55;;;0.50;;
30249;SDS011;17064;47.974;13.826;2022-10-16T04:33:43;6.53;;;0.60;;
30249;SDS011;17064;47.974;13.826;2022-10-16T04:38:44;2.65;;;0.80;;
30249;SDS011;17064;47.974;13.826;2022-10-16T04:43:45;10.55;;;1.25;;
30249;SDS011;17064;47.974;13.826;2022-10-16T04:48:45;1.15;;;0.60;;
30249;SDS011;17064;47.974;13.826;2022-10-16T04:53:46;14.77;;;1.00;;
30249;SDS011;17064;47.974;13.826;2022-10-16T04:58:47;1.58;;;0.80;;
30249;SDS011;17064;47.974;13.826;2022-10-16T05:03:48;2.97;;;0.90;;
30249;SDS011;17064;47.974;13.826;2022-10-16T05:08:49;2.45;;;1.00;;
30249;SDS011;17064;47.974;13.826;2022-10-16T05:13:49;4.47;;;1.20;;
30249;SDS011;17064;47.974;13.826;2022-10-16T05:18:53;3.60;;;1.23;;
30249;SDS011;17064;47.974;13.826;2022-10-16T05:23:54;2.03;;;1.00;;
30249;SDS011;17064;47.974;13.826;2022-10-16T05:28:55;1.50;;;1.25;;
30249;SDS011;17064;47.974;13.826;2022-10-16T05:33:59;3.35;;;1.15;;
30249;SDS011;17064;47.974;13.826;2022-10-16T05:39:00;6.22;;;1.10;;
30249;SDS011;17064;47.974;13.826;2022-10-16T05:44:03;2.38;;;1.23;;
30249;SDS011;17064;47.974;13.826;2022-10-16T05:49:05;2.97;;;1.42;;
30249;SDS011;17064;47.974;13.826;2022-10-16T05:54:06;2.83;;;0.85;;
30249;SDS011;17064;47.974;13.826;2022-10-16T05:59:07;1.48;;;0.63;;
30249;SDS011;17064;47.974;13.826;2022-10-16T06:04:08;1.45;;;0.90;;
30249;SDS011;17064;47.974;13.826;2022-10-16T06:09:09;1.77;;;0.73;;
30249;SDS011;17064;47.974;13.826;2022-10-16T06:14:10;2.55;;;0.80;;
30249;SDS011;17064;47.974;13.826;2022-10-16T06:19:11;3.90;;;1.17;;
30249;SDS011;17064;47.974;13.826;2022-10-16T06:24:11;0.77;;;0.75;;
30249;SDS011;17064;47.974;13.826;2022-10-16T06:29:12;6.05;;;1.60;;
30249;SDS011;17064;47.974;13.826;2022-10-16T06:34:13;2.90;;;0.75;;
30249;SDS011;17064;47.974;13.826;2022-10-16T06:39:14;2.92;;;1.00;;
30249;SDS011;17064;47.974;13.826;2022-10-16T06:44:15;4.38;;;3.10;;
30249;SDS011;17064;47.974;13.826;2022-10-16T06:49:15;4.18;;;2.58;;
30249;SDS011;17064;47.974;13.826;2022-10-16T06:54:21;4.57;;;2.08;;
30249;SDS011;17064;47.974;13.826;2022-10-16T06:59:22;5.57;;;1.98;;
30249;SDS011;17064;47.974;13.826;2022-10-16T07:04:23;1.83;;;1.27;;
30249;SDS011;17064;47.974;13.826;2022-10-16T07:09:23;5.85;;;2.10;;
30249;SDS011;17064;47.974;13.826;2022-10-16T07:14:24;4.35;;;1.75;;
30249;SDS011;17064;47.974;13.826;2022-10-16T07:19:25;3.83;;;1.40;;
30249;SDS011;17064;47.974;13.826;2022-10-16T07:24:25;5.00;;;1.17;;
30249;SDS011;17064;47.974;13.826;2022-10-16T07:29:26;2.90;;;1.00;;
30249;SDS011;17064;47.974;13.826;2022-10-16T07:34:27;2.10;;;0.90;;
30249;SDS011;17064;47.974;13.826;2022-10-16T07:39:28;1.05;;;0.82;;
30249;SDS011;17064;47.974;13.826;2022-10-16T07:44:29;4.50;;;1.15;;
30249;SDS011;17064;47.974;13.826;2022-10-16T07:49:29;2.55;;;1.02;;
30249;SDS011;17064;47.974;13.826;2022-10-16T07:54:30;3.50;;;0.68;;
30249;SDS011;17064;47.974;13.826;2022-10-16T07:59:31;1.30;;;0.60;;
30249;SDS011;17064;47.974;13.826;2022-10-16T08:04:31;1.05;;;0.70;;
30249;SDS011;17064;47.974;13.826;2022-10-16T08:09:32;0.88;;;0.50;;
30249;SDS011;17064;47.974;13.826;2022-10-16T08:14:33;0.60;;;0.50;;
30249;SDS011;17064;47.974;13.826;2022-10-16T08:19:33;1.60;;;0.55;;
30249;SDS011;17064;47.974;13.826;2022-10-16T08:24:34;2.47;;;0.63;;
30249;SDS011;17064;47.974;13.826;2022-10-16T08:29:36;0.80;;;0.50;;
30249;SDS011;17064;47.974;13.826;2022-10-16T08:34:38;2.88;;;0.57;;
30249;SDS011;17064;47.974;13.826;2022-10-16T08:39:39;0.70;;;0.65;;
30249;SDS011;17064;47.974;13.826;2022-10-16T08:44:48;1.90;;;0.68;;
30249;SDS011;17064;47.974;13.826;2022-10-16T08:55:03;1.67;;;0.80;;
30249;SDS011;17064;47.974;13.826;2022-10-16T09:00:13;3.40;;;0.95;;
30249;SDS011;17064;47.974;13.826;2022-10-16T09:05:22;3.40;;;1.00;;
30249;SDS011;17064;47.974;13.826;2022-10-16T09:16:11;3.92;;;1.00;;
30249;SDS011;17064;47.974;13.826;2022-10-16T09:21:26;2.97;;;0.95;;
30249;SDS011;17064;47.974;13.826;2022-10-16T09:26:32;1.63;;;0.80;;
30249;SDS011;17064;47.974;13.826;2022-10-16T09:31:33;2.65;;;1.08;;
30249;SDS011;17064;47.974;13.826;2022-10-16T09:36:40;4.53;;;0.60;;
30249;SDS011;17064;47.974;13.826;2022-10-16T09:41:44;2.40;;;0.93;;
30249;SDS011;17064;47.974;13.826;2022-10-16T09:46:45;1.00;;;0.63;;
30249;SDS011;17064;47.974;13.826;2022-10-16T09:51:46;2.22;;;0.85;;
30249;SDS011;17064;47.974;13.826;2022-10-16T09:56:47;1.73;;;0.98;;
30249;SDS011;17064;47.974;13.826;2022-10-16T10:01:54;3.63;;;1.15;;
30249;SDS011;17064;47.974;13.826;2022-10-16T10:06:56;2.08;;;1.27;;
30249;SDS011;17064;47.974;13.826;2022-10-16T10:12:01;2.35;;;1.50;;
30249;SDS011;17064;47.974;13.826;2022-10-16T10:22:15;5.30;;;1.55;;
30249;SDS011;17064;47.974;13.826;2022-10-16T10:27:16;3.75;;;1.85;;
30249;SDS011;17064;47.974;13.826;2022-10-16T10:37:37;3.97;;;1.65;;
30249;SDS011;17064;47.974;13.826;2022-10-16T10:42:53;6.78;;;1.63;;
30249;SDS011;17064;47.974;13.826;2022-10-16T10:48:05;3.72;;;1.77;;
30249;SDS011;17064;47.974;13.826;2022-10-16T11:09:42;4.97;;;1.65;;
30249;SDS011;17064;47.974;13.826;2022-10-16T11:20:29;3.30;;;1.42;;
30249;SDS011;17064;47.974;13.826;2022-10-16T11:25:33;15.02;;;1.95;;
30249;SDS011;17064;47.974;13.826;2022-10-16T11:30:46;3.08;;;1.30;;
30249;SDS011;17064;47.974;13.826;2022-10-16T11:35:57;2.60;;;1.27;;
30249;SDS011;17064;47.974;13.826;2022-10-16T11:41:03;5.55;;;0.98;;
30249;SDS011;17064;47.974;13.826;2022-10-16T11:46:22;7.07;;;1.20;;
30249;SDS011;17064;47.974;13.826;2022-10-16T11:57:14;7.13;;;1.33;;
30249;SDS011;17064;47.974;13.826;2022-10-16T12:08:10;3.05;;;0.80;;
30249;SDS011;17064;47.974;13.826;2022-10-16T12:18:29;3.65;;;0.90;;
30249;SDS011;17064;47.974;13.826;2022-10-16T12:23:29;3.22;;;0.82;;
30249;SDS011;17064;47.974;13.826;2022-10-16T12:28:31;2.38;;;0.88;;
30249;SDS011;17064;47.974;13.826;2022-10-16T12:33:33;1.83;;;0.90;;
30249;SDS011;17064;47.974;13.826;2022-10-16T12:38:44;9.75;;;1.05;;
30249;SDS011;17064;47.974;13.826;2022-10-16T12:43:48;1.52;;;0.73;;
30249;SDS011;17064;47.974;13.826;2022-10-16T12:48:50;1.73;;;1.02;;
30249;SDS011;17064;47.974;13.826;2022-10-16T12:54:00;4.53;;;1.10;;
30249;SDS011;17064;47.974;13.826;2022-10-16T13:04:36;2.03;;;1.20;;
30249;SDS011;17064;47.974;13.826;2022-10-16T13:09:40;1.85;;;1.00;;
30249;SDS011;17064;47.974;13.826;2022-10-16T13:15:04;3.20;;;0.90;;
30249;SDS011;17064;47.974;13.826;2022-10-16T13:31:36;2.42;;;1.10;;
30249;SDS011;17064;47.974;13.826;2022-10-16T13:36:46;2.78;;;0.93;;
30249;SDS011;17064;47.974;13.826;2022-10-16T13:47:27;1.08;;;0.90;;
30249;SDS011;17064;47.974;13.826;2022-10-16T13:52:29;0.85;;;0.85;;
30249;SDS011;17064;47.974;13.826;2022-10-16T13:57:30;2.40;;;0.90;;
30249;SDS011;17064;47.974;13.826;2022-10-16T14:07:35;1.75;;;1.08;;
30249;SDS011;17064;47.974;13.826;2022-10-16T14:12:36;6.80;;;1.05;;
30249;SDS011;17064;47.974;13.826;2022-10-16T14:17:48;1.15;;;0.90;;
30249;SDS011;17064;47.974;13.826;2022-10-16T14:23:02;1.42;;;0.90;;
30249;SDS011;17064;47.974;13.826;2022-10-16T14:28:23;4.93;;;0.95;;
30249;SDS011;17064;47.974;13.826;2022-10-16T14:33:33;2.25;;;0.68;;
30249;SDS011;17064;47.974;13.826;2022-10-16T14:38:34;1.48;;;1.13;;
30249;SDS011;17064;47.974;13.826;2022-10-16T14:43:37;1.58;;;0.88;;
30249;SDS011;17064;47.974;13.826;2022-10-16T14:48:41;4.05;;;1.52;;
30249;SDS011;17064;47.974;13.826;2022-10-16T14:53:43;4.47;;;1.10;;
30249;SDS011;17064;47.974;13.826;2022-10-16T14:58:44;1.73;;;1.17;;
30249;SDS011;17064;47.974;13.826;2022-10-16T15:03:45;1.42;;;1.02;;
30249;SDS011;17064;47.974;13.826;2022-10-16T15:08:46;3.15;;;1.30;;
30249;SDS011;17064;47.974;13.826;2022-10-16T15:13:46;2.92;;;1.80;;
30249;SDS011;17064;47.974;13.826;2022-10-16T15:18:47;5.00;;;1.55;;
30249;SDS011;17064;47.974;13.826;2022-10-16T15:23:48;3.58;;;2.10;;
30249;SDS011;17064;47.974;13.826;2022-10-16T15:28:50;3.75;;;1.40;;
30249;SDS011;17064;47.974;13.826;2022-10-16T15:33:52;3.47;;;1.60;;
30249;SDS011;17064;47.974;13.826;2022-10-16T15:39:02;2.67;;;1.40;;
30249;SDS011;17064;47.974;13.826;2022-10-16T15:49:04;1.58;;;1.30;;
30249;SDS011;17064;47.974;13.826;2022-10-16T15:54:05;2.53;;;1.30;;
30249;SDS011;17064;47.974;13.826;2022-10-16T15:59:06;1.35;;;1.17;;
30249;SDS011;17064;47.974;13.826;2022-10-16T16:04:07;3.05;;;1.23;;
30249;SDS011;17064;47.974;13.826;2022-10-16T16:09:07;2.53;;;1.50;;
30249;SDS011;17064;47.974;13.826;2022-10-16T16:14:12;3.05;;;1.75;;
30249;SDS011;17064;47.974;13.826;2022-10-16T16:19:13;2.67;;;1.73;;
30249;SDS011;17064;47.974;13.826;2022-10-16T16:24:16;3.03;;;1.65;;
30249;SDS011;17064;47.974;13.826;2022-10-16T16:29:17;3.00;;;1.58;;
30249;SDS011;17064;47.974;13.826;2022-10-16T16:34:17;1.80;;;1.60;;
30249;SDS011;17064;47.974;13.826;2022-10-16T16:39:19;3.92;;;1.65;;
30249;SDS011;17064;47.974;13.826;2022-10-16T16:44:20;1.58;;;1.48;;
30249;SDS011;17064;47.974;13.826;2022-10-16T16:49:21;3.45;;;1.30;;
30249;SDS011;17064;47.974;13.826;2022-10-16T16:54:22;3.60;;;1.38;;
30249;SDS011;17064;47.974;13.826;2022-10-16T16:59:22;2.10;;;1.40;;
30249;SDS011;17064;47.974;13.826;2022-10-16T17:04:23;4.05;;;1.98;;
30249;SDS011;17064;47.974;13.826;2022-10-16T17:09:25;2.80;;;1.65;;
30249;SDS011;17064;47.974;13.826;2022-10-16T17:14:26;3.42;;;2.22;;
30249;SDS011;17064;47.974;13.826;2022-10-16T17:19:27;3.42;;;1.65;;
30249;SDS011;17064;47.974;13.826;2022-10-16T17:24:28;5.03;;;2.85;;
30249;SDS011;17064;47.974;13.826;2022-10-16T17:29:29;4.50;;;3.00;;
30249;SDS011;17064;47.974;13.826;2022-10-16T17:34:31;4.90;;;3.15;;
30249;SDS011;17064;47.974;13.826;2022-10-16T17:39:32;4.88;;;2.72;;
30249;SDS011;17064;47.974;13.826;2022-10-16T17:44:33;5.10;;;2.60;;
30249;SDS011;17064;47.974;13.826;2022-10-16T17:49:35;7.13;;;2.33;;
30249;SDS011;17064;47.974;13.826;2022-10-16T17:54:37;5.82;;;2.35;;
30249;SDS011;17064;47.974;13.826;2022-10-16T17:59:39;2.72;;;1.85;;
30249;SDS011;17064;47.974;13.826;2022-10-16T18:04:40;5.03;;;1.83;;
30249;SDS011;17064;47.974;13.826;2022-10-16T18:09:43;4.22;;;1.70;;
30249;SDS011;17064;47.974;13.826;2022-10-16T18:14:44;1.80;;;1.48;;
30249;SDS011;17064;47.974;13.826;2022-10-16T18:19:45;2.30;;;1.58;;
30249;SDS011;17064;47.974;13.826;2022-10-16T18:24:46;3.17;;;1.48;;
30249;SDS011;17064;47.974;13.826;2022-10-16T18:29:47;1.58;;;1.48;;
30249;SDS011;17064;47.974;13.826;2022-10-16T18:34:49;2.85;;;2.17;;
30249;SDS011;17064;47.974;13.826;2022-10-16T18:39:50;5.32;;;2.03;;
30249;SDS011;17064;47.974;13.826;2022-10-16T18:44:53;3.67;;;1.45;;
30249;SDS011;17064;47.974;13.826;2022-10-16T18:49:55;2.38;;;1.33;;
30249;SDS011;17064;47.974;13.826;2022-10-16T18:54:56;4.75;;;1.35;;
30249;SDS011;17064;47.974;13.826;2022-10-16T18:59:57;1.60;;;1.40;;
30249;SDS011;17064;47.974;13.826;2022-10-16T19:04:59;3.58;;;1.48;;
30249;SDS011;17064;47.974;13.826;2022-10-16T19:10:01;2.97;;;1.40;;
30249;SDS011;17064;47.974;13.826;2022-10-16T19:15:02;3.72;;;1.80;;
30249;SDS011;17064;47.974;13.826;2022-10-16T19:20:04;3.85;;;1.77;;
30249;SDS011;17064;47.974;13.826;2022-10-16T19:25:06;2.87;;;1.50;;
30249;SDS011;17064;47.974;13.826;2022-10-16T19:30:08;2.15;;;1.55;;
30249;SDS011;17064;47.974;13.826;2022-10-16T19:35:09;4.95;;;1.75;;
30249;SDS011;17064;47.974;13.826;2022-10-16T19:40:11;2.88;;;1.70;;
30249;SDS011;17064;47.974;13.826;2022-10-16T19:45:12;3.00;;;1.93;;
30249;SDS011;17064;47.974;13.826;2022-10-16T19:50:14;4.85;;;2.05;;
30249;SDS011;17064;47.974;13.826;2022-10-16T19:55:15;3.53;;;2.03;;
30249;SDS011;17064;47.974;13.826;2022-10-16T20:00:17;5.70;;;1.90;;
30249;SDS011;17064;47.974;13.826;2022-10-16T20:05:18;3.38;;;1.95;;
30249;SDS011;17064;47.974;13.826;2022-10-16T20:10:19;3.30;;;1.85;;
30249;SDS011;17064;47.974;13.826;2022-10-16T20:15:20;3.70;;;1.92;;
30249;SDS011;17064;47.974;13.826;2022-10-16T20:20:21;3.70;;;1.60;;
30249;SDS011;17064;47.974;13.826;2022-10-16T20:25:22;6.00;;;2.00;;
30249;SDS011;17064;47.974;13.826;2022-10-16T20:30:23;2.03;;;1.70;;
30249;SDS011;17064;47.974;13.826;2022-10-16T20:35:24;2.80;;;2.10;;
30249;SDS011;17064;47.974;13.826;2022-10-16T20:40:25;5.55;;;2.10;;
30249;SDS011;17064;47.974;13.826;2022-10-16T20:45:25;2.80;;;1.65;;
30249;SDS011;17064;47.974;13.826;2022-10-16T20:50:29;7.50;;;2.30;;
30249;SDS011;17064;47.974;13.826;2022-10-16T20:55:33;3.88;;;1.60;;
30249;SDS011;17064;47.974;13.826;2022-10-16T21:00:36;4.15;;;1.63;;
30249;SDS011;17064;47.974;13.826;2022-10-16T21:05:41;3.30;;;1.83;;
30249;SDS011;17064;47.974;13.826;2022-10-16T21:10:41;6.60;;;2.03;;
30249;SDS011;17064;47.974;13.826;2022-10-16T21:15:42;4.75;;;2.17;;
30249;SDS011;17064;47.974;13.826;2022-10-16T21:20:43;3.83;;;1.70;;
30249;SDS011;17064;47.974;13.826;2022-10-16T21:25:47;3.75;;;2.30;;
30249;SDS011;17064;47.974;13.826;2022-10-16T21:30:48;2.88;;;1.90;;
30249;SDS011;17064;47.974;13.826;2022-10-16T21:35:49;2.80;;;1.60;;
30249;SDS011;17064;47.974;13.826;2022-10-16T21:40:50;5.03;;;1.80;;
30249;SDS011;17064;47.974;13.826;2022-10-16T21:45:50;2.00;;;1.45;;
30249;SDS011;17064;47.974;13.826;2022-10-16T21:50:53;2.47;;;1.55;;
30249;SDS011;17064;47.974;13.826;2022-10-16T21:55:54;3.20;;;1.58;;
30249;SDS011;17064;47.974;13.826;2022-10-16T22:00:55;2.97;;;1.77;;
30249;SDS011;17064;47.974;13.826;2022-10-16T22:05:59;6.47;;;1.98;;
30249;SDS011;17064;47.974;13.826;2022-10-16T22:11:05;4.65;;;1.50;;
30249;SDS011;17064;47.974;13.826;2022-10-16T22:16:20;2.58;;;1.70;;
30249;SDS011;17064;47.974;13.826;2022-10-16T22:21:22;1.95;;;1.40;;
30249;SDS011;17064;47.974;13.826;2022-10-16T22:26:23;2.42;;;1.70;;
30249;SDS011;17064;47.974;13.826;2022-10-16T22:31:24;4.28;;;1.70;;
30249;SDS011;17064;47.974;13.826;2022-10-16T22:36:25;2.45;;;1.58;;
30249;SDS011;17064;47.974;13.826;2022-10-16T22:41:26;3.08;;;1.40;;
30249;SDS011;17064;47.974;13.826;2022-10-16T22:46:28;1.63;;;1.52;;
30249;SDS011;17064;47.974;13.826;2022-10-16T22:51:29;4.23;;;1.97;;
30249;SDS011;17064;47.974;13.826;2022-10-16T22:56:30;5.63;;;2.28;;
